Nearby METAR Reports

 

KSJC - San Jose, California, USA
Distance from station: NE 9mi, 14km
Updated: Sat, 16-Oct-2021 2:53pm MDT
Clear
Clear
 Wind from NW
Wind: NW 5 mph , 7 km/h
Temperature: 84°F , 29°C
Dew Point: 34°F , 1°C
Humidity: 16%
Barometer: 29.93 inHg , 1013.5 hPa
Clouds: Clear
Visibility: 10 miles , 16 km
2021/10/16 20:53 KSJC 162053Z 32004KT 10SM CLR 29/01 A2993 RMK AO2 SLP134 T02940011 58030
KNUQ - Moffett Nas/Mtn, California, USA
Distance from station: N 9mi, 14km
Updated: Sun, 22-Aug-2021 5:40am MDT
NOT Current
Overcast
Overcast
 Wind from SSE
Wind: SSE 7 mph , 11 km/h
Temperature: 61°F , 16°C
Dew Point: 54°F , 12°C
Humidity: 77%
Barometer: 29.82 inHg , 1009.8 hPa
Clouds: Overcast
Visibility: 10 miles , 16 km
Cloud details: Overcast 1800 ft
2021/08/22 11:40 KNUQ 221140Z AUTO 16006KT 10SM OVC018 16/12 A2982 RMK AO2
 
KPAO - Palo Alto, California, USA
Distance from station: NNW 14mi, 23km
Updated: Sat, 16-Oct-2021 2:47pm MDT
Clear
Clear
 Wind from N
Wind: N 7 mph , 11 km/h
Temperature: 75°F , 24°C
Dew Point: 46°F , 8°C
Humidity: 36%
Barometer: 29.94 inHg , 1013.9 hPa
Clouds: Clear
Visibility: 10 miles , 16 km
2021/10/16 20:47 KPAO 162047Z 36006KT 10SM SKC 24/08 A2994
KRHV - San Jose/Reid, California, USA
Distance from station: ENE 12mi, 19km
Updated: Sat, 16-Oct-2021 2:50pm MDT
Clear
Clear
 Wind from WNW
Wind: WNW 6 mph , 9 km/h
Temperature: 84°F , 29°C
Dew Point: 34°F , 1°C
Humidity: 16%
Barometer: 29.93 inHg , 1013.5 hPa
Clouds: Clear
Visibility: 10 miles , 16 km
2021/10/16 20:50 KRHV 162050Z 30005KT 10SM SKC 29/01 A2993
 
KOAK - Oakland, California, USA
Distance from station: NNW 31mi, 50km
Updated: Sat, 16-Oct-2021 2:53pm MDT
Clear
Clear
 Wind from W
Wind: W 9 mph , 15 km/h
Temperature: 73°F , 23°C
Dew Point: 41°F , 5°C
Humidity: 31%
Barometer: 29.96 inHg , 1014.6 hPa
Clouds: Clear
Visibility: 10 miles , 16 km
2021/10/16 20:53 KOAK 162053Z 27008KT 10SM CLR 23/05 A2996 RMK AO2 SLP143 T02280050 58025
KSQL - San Carlos Airpo, California, USA
Distance from station: NW 21mi, 34km
Updated: Sat, 16-Oct-2021 2:47pm MDT
Clear
Clear
 Wind from calm
Wind: Calm
Temperature: 75°F , 24°C
Dew Point: 41°F , 5°C
Humidity: 29%
Barometer: 29.86 inHg , 1011.2 hPa
Clouds: Clear
Visibility: 10 miles , 16 km
2021/10/16 20:47 KSQL 162047Z 00000KT 10SM CLR 24/05 A2986
 
KSFO - San Francisco, California, USA
Distance from station: NW 30mi, 49km
Updated: Sat, 16-Oct-2021 2:56pm MDT
Clear
Clear
 Wind from NNE
Wind: NNE 5 mph , 7 km/h
Temperature: 70°F , 21°C
Dew Point: 54°F , 12°C
Humidity: 57%
Barometer: 29.94 inHg , 1013.9 hPa
Clouds: Clear
Visibility: 10 miles , 16 km
2021/10/16 20:56 KSFO 162056Z 03004KT 10SM CLR 21/12 A2994 RMK AO2 SLP139 T02110122 58026
KE16 - San Martin, California, USA
Distance from station: ESE 27mi, 43km
Updated: Sat, 16-Oct-2021 3:15pm MDT
Clear
Clear
 Wind from ESE
Wind: ESE 5 mph , 7 km/h
Temperature: 86°F , 30°C
Dew Point: 21°F , -6°C
Humidity: 9%
Barometer: 29.94 inHg , 1013.9 hPa
Clouds: Clear
Visibility: 10 miles , 16 km
2021/10/16 21:15 KE16 162115Z AUTO 11004KT 10SM CLR 30/M06 A2994 RMK AO2
 
KWVI - Watsonville, California, USA
Distance from station: SSE 27mi, 44km
Updated: Sat, 16-Oct-2021 2:53pm MDT
Clear
Clear
 Wind from WSW
Wind: WSW 12 mph , 19 km/h
Temperature: 88°F , 31°C
Dew Point: 36°F , 2°C
Humidity: 16%
Barometer: 29.94 inHg , 1013.9 hPa
Clouds: Clear
Visibility: 10 miles , 16 km
2021/10/16 20:53 KWVI 162053Z AUTO 24010KT 10SM CLR 31/02 A2994 RMK AO2 SLP138 T03060017 58023
KHAF - Half Moon Bay, California, USA
Distance from station: WNW 31mi, 50km
Updated: Sat, 16-Oct-2021 3:35pm MDT
Clear
Clear
 Wind from WSW
Wind: WSW 8 mph , 13 km/h
Temperature: 70°F , 21°C
Dew Point: 37°F , 3°C
Humidity: 31%
Barometer: 29.95 inHg , 1014.2 hPa
Clouds: Clear
Visibility: 9 miles , 14 km
2021/10/16 21:35 KHAF 162135Z AUTO 25007KT 9SM CLR 21/03 A2995 RMK AO2
 
KHWD - Hayward, California, USA
Distance from station: N 28mi, 44km
Updated: Sat, 16-Oct-2021 2:54pm MDT
Clear
Clear
 Wind from WNW
Wind: WNW 9 mph , 15 km/h
Temperature: 75°F , 24°C
Dew Point: 45°F , 7°C
Humidity: 34%
Barometer: 29.94 inHg , 1013.9 hPa
Clouds: Clear
Visibility: 10 miles , 16 km
2021/10/16 20:54 KHWD 162054Z 29008KT 10SM CLR 24/07 A2994 RMK AO2 SLP148 T02390067 58027
KLVK - Livermore, California, USA
Distance from station: NNE 31mi, 51km
Updated: Sat, 16-Oct-2021 2:53pm MDT
Clear
Clear
 Wind from ENE
Wind: ENE 9 mph , 15 km/h
Temperature: 84°F , 29°C
Dew Point: 34°F , 1°C
Humidity: 16%
Barometer: 29.95 inHg , 1014.2 hPa
Clouds: Clear
Visibility: 10 miles , 16 km
2021/10/16 20:53 KLVK 162053Z 07008KT 10SM CLR 29/01 A2995 RMK AO2 SLP136 T02890006 58026